createdAt,value
2017-12-06T00:01:22.998Z,27.03
2017-12-06T00:03:51.418Z,24.93
2017-12-06T00:06:20.108Z,21.70
2017-12-06T00:08:48.799Z,22.67
2017-12-06T00:11:18.414Z,24.50
2017-12-06T00:13:52.358Z,23.83
2017-12-06T00:16:20.639Z,23.80
2017-12-06T00:18:48.955Z,25.90
2017-12-06T00:21:17.262Z,25.47
2017-12-06T00:23:45.568Z,21.27
2017-12-06T00:26:14.599Z,28.30
2017-12-06T00:28:42.860Z,24.00
2017-12-06T00:31:11.987Z,27.67
2017-12-06T00:33:40.247Z,23.93
2017-12-06T00:36:08.545Z,24.87
2017-12-06T00:38:36.799Z,24.13
2017-12-06T00:41:05.127Z,27.50
2017-12-06T00:43:33.380Z,26.83
2017-12-06T00:46:01.688Z,26.47
2017-12-06T00:48:29.940Z,22.10
2017-12-06T00:50:58.244Z,24.03
2017-12-06T00:53:26.514Z,26.50
2017-12-06T00:55:54.784Z,23.67
2017-12-06T00:58:23.022Z,24.17
2017-12-06T01:00:51.295Z,26.30
2017-12-06T01:03:19.605Z,23.47
2017-12-06T01:05:48.784Z,23.77
2017-12-06T01:08:17.018Z,20.20
2017-12-06T01:10:45.302Z,23.90
2017-12-06T01:13:13.576Z,25.53
2017-12-06T01:15:41.827Z,21.00
2017-12-06T01:18:10.972Z,21.10
2017-12-06T01:20:39.251Z,22.93
2017-12-06T01:23:07.616Z,26.20
2017-12-06T01:25:35.868Z,21.73
2017-12-06T01:28:05.006Z,20.70
2017-12-06T01:30:33.266Z,21.30
2017-12-06T01:33:01.534Z,26.30
2017-12-06T01:35:29.787Z,22.33
2017-12-06T01:37:58.068Z,22.80
2017-12-06T01:40:26.302Z,23.90
2017-12-06T01:42:54.612Z,26.13
2017-12-06T01:45:22.838Z,26.67
2017-12-06T01:47:51.111Z,19.83
2017-12-06T01:50:19.362Z,23.43
2017-12-06T01:52:47.635Z,25.80
2017-12-06T01:55:15.886Z,23.60
2017-12-06T01:57:44.179Z,23.47
2017-12-06T02:00:12.426Z,23.00
2017-12-06T02:02:40.734Z,22.83
2017-12-06T02:05:08.999Z,23.17
2017-12-06T02:07:37.300Z,19.47
2017-12-06T02:10:05.556Z,24.50
2017-12-06T02:12:33.842Z,24.33
2017-12-06T02:15:02.099Z,21.80
2017-12-06T02:17:30.416Z,26.33
2017-12-06T02:19:58.687Z,25.20
2017-12-06T02:22:26.943Z,25.00
2017-12-06T02:24:55.254Z,21.77
2017-12-06T02:27:23.508Z,21.03
2017-12-06T02:29:51.815Z,23.60
2017-12-06T02:32:20.066Z,26.33
2017-12-06T02:34:49.187Z,24.53
2017-12-06T02:37:17.442Z,21.07
2017-12-06T02:39:58.418Z,29.17
2017-12-06T02:42:39.450Z,23.40
2017-12-06T02:45:19.506Z,25.03
2017-12-06T02:47:47.761Z,26.70
2017-12-06T02:50:16.027Z,25.47
2017-12-06T02:52:44.387Z,24.60
2017-12-06T02:55:13.426Z,26.47
2017-12-06T02:57:41.671Z,25.27
2017-12-06T03:00:10.698Z,24.07
2017-12-06T03:02:38.956Z,23.50
2017-12-06T03:05:07.257Z,22.40
2017-12-06T03:07:35.526Z,24.57
2017-12-06T03:10:03.803Z,27.07
2017-12-06T03:12:32.050Z,26.53
2017-12-06T03:15:00.319Z,22.50
2017-12-06T03:17:28.578Z,21.80
2017-12-06T03:19:56.871Z,26.90
2017-12-06T03:22:25.150Z,24.67
2017-12-06T03:24:53.527Z,22.90
2017-12-06T03:27:21.794Z,25.20
2017-12-06T03:29:50.067Z,31.27
2017-12-06T03:32:19.150Z,27.07
2017-12-06T03:34:47.424Z,24.83
2017-12-06T03:37:15.668Z,22.57
2017-12-06T03:39:44.258Z,26.10
2017-12-06T03:42:13.054Z,24.87
2017-12-06T03:44:41.550Z,23.80
2017-12-06T03:47:10.603Z,24.50
2017-12-06T03:49:38.863Z,24.67
2017-12-06T03:52:08.222Z,27.70
2017-12-06T03:54:37.626Z,25.27
2017-12-06T03:57:06.786Z,24.77
2017-12-06T03:59:35.544Z,28.60
2017-12-06T04:02:04.214Z,23.07
2017-12-06T04:04:33.619Z,29.07
2017-12-06T04:07:02.999Z,26.47
2017-12-06T04:09:31.280Z,23.90
2017-12-06T04:11:59.538Z,27.57
2017-12-06T04:14:27.796Z,27.20
2017-12-06T04:16:56.831Z,28.23
2017-12-06T04:19:25.958Z,22.33
2017-12-06T04:21:54.322Z,28.40
2017-12-06T04:24:22.590Z,27.63
2017-12-06T04:26:50.846Z,25.47
2017-12-06T04:29:19.091Z,27.83
2017-12-06T04:31:47.357Z,28.53
2017-12-06T04:34:15.611Z,29.70
2017-12-06T04:36:43.876Z,27.60
2017-12-06T04:39:12.140Z,26.90
2017-12-06T04:41:41.183Z,29.27
2017-12-06T04:44:09.428Z,24.60
2017-12-06T04:46:37.704Z,28.77
2017-12-06T04:49:05.973Z,31.70
2017-12-06T04:51:34.990Z,26.40
2017-12-06T04:54:03.307Z,26.17
2017-12-06T04:56:31.550Z,22.57
2017-12-06T04:58:59.822Z,22.37
2017-12-06T05:01:28.128Z,27.13
2017-12-06T05:03:56.399Z,27.10
2017-12-06T05:06:24.650Z,23.77
2017-12-06T05:08:53.690Z,29.40
2017-12-06T05:11:21.944Z,23.90
2017-12-06T05:13:50.249Z,23.53
2017-12-06T05:16:18.497Z,23.07
2017-12-06T05:18:46.810Z,24.17
2017-12-06T05:21:15.068Z,26.10
2017-12-06T05:23:43.329Z,29.43
2017-12-06T05:26:12.343Z,19.97
2017-12-06T05:28:40.616Z,25.50
2017-12-06T05:31:08.873Z,26.57
2017-12-06T05:33:38.753Z,24.47
2017-12-06T05:36:07.003Z,23.40
2017-12-06T05:38:35.282Z,24.20
2017-12-06T05:41:03.543Z,20.40
2017-12-06T05:43:32.582Z,22.60
2017-12-06T05:46:00.829Z,27.07
2017-12-06T05:48:29.154Z,19.73
2017-12-06T05:50:58.244Z,22.20
2017-12-06T05:53:26.535Z,23.40
2017-12-06T05:55:54.819Z,23.80
2017-12-06T05:58:23.070Z,23.37
2017-12-06T06:00:51.351Z,22.93
2017-12-06T06:03:19.699Z,22.80
2017-12-06T06:05:48.753Z,22.67
2017-12-06T06:08:17.006Z,19.60
2017-12-06T06:10:45.272Z,21.83
2017-12-06T06:13:14.287Z,23.80
2017-12-06T06:15:42.558Z,19.90
2017-12-06T06:18:10.847Z,22.17
2017-12-06T06:20:39.119Z,21.30
2017-12-06T06:23:07.369Z,25.23
2017-12-06T06:25:36.118Z,19.83
2017-12-06T06:28:04.378Z,22.33
2017-12-06T06:30:32.650Z,23.70
2017-12-06T06:33:01.014Z,22.87
2017-12-06T06:35:29.384Z,27.30
2017-12-06T06:37:57.739Z,28.63
2017-12-06T06:40:26.049Z,22.30
2017-12-06T06:42:54.346Z,26.63
2017-12-06T06:45:22.679Z,21.17
2017-12-06T06:47:50.952Z,23.43
2017-12-06T06:50:19.275Z,28.97
2017-12-06T06:52:48.286Z,25.77
2017-12-06T06:55:17.346Z,24.20
2017-12-06T06:57:45.652Z,23.60
2017-12-06T07:00:14.208Z,24.30
2017-12-06T07:02:42.446Z,27.30
2017-12-06T07:05:11.469Z,25.63
2017-12-06T07:07:39.730Z,26.73
2017-12-06T07:10:08.739Z,24.67
2017-12-06T07:12:37.006Z,23.83
2017-12-06T07:15:05.277Z,25.60
2017-12-06T07:17:34.378Z,23.40
2017-12-06T07:20:03.390Z,24.20
2017-12-06T07:22:31.735Z,24.43
2017-12-06T07:24:59.984Z,27.67
2017-12-06T07:27:28.247Z,27.17
2017-12-06T07:29:56.549Z,23.43
2017-12-06T07:32:24.821Z,22.17
2017-12-06T07:34:53.066Z,22.00
2017-12-06T07:37:22.098Z,25.57
2017-12-06T07:39:50.416Z,25.90
2017-12-06T07:42:18.654Z,27.97
2017-12-06T07:44:46.911Z,23.77
2017-12-06T07:47:15.191Z,25.20
2017-12-06T07:49:43.517Z,23.77
2017-12-06T07:52:11.918Z,24.23
2017-12-06T07:54:40.991Z,24.30
2017-12-06T07:57:09.412Z,20.90
2017-12-06T07:59:37.653Z,24.60
2017-12-06T08:02:06.459Z,21.83
2017-12-06T08:04:34.715Z,20.67
2017-12-06T08:07:02.988Z,24.30
2017-12-06T08:09:31.235Z,21.70
2017-12-06T08:12:00.287Z,21.63
2017-12-06T08:14:28.546Z,18.77
2017-12-06T08:16:56.853Z,20.93
2017-12-06T08:19:25.123Z,18.10
2017-12-06T08:21:53.380Z,21.87
2017-12-06T08:24:22.021Z,20.47
2017-12-06T08:26:50.318Z,16.43
2017-12-06T08:29:19.371Z,20.43
2017-12-06T08:31:47.656Z,21.57
2017-12-06T08:34:15.906Z,20.03
2017-12-06T08:36:44.175Z,22.30
2017-12-06T08:39:13.177Z,19.97
2017-12-06T08:41:41.794Z,18.50
2017-12-06T08:44:10.033Z,18.07
2017-12-06T08:46:39.061Z,21.80
2017-12-06T08:49:07.315Z,17.23
2017-12-06T08:51:36.347Z,18.77
2017-12-06T08:54:04.636Z,16.70
2017-12-06T08:56:33.024Z,18.57
2017-12-06T08:59:02.190Z,14.40
2017-12-06T09:01:30.499Z,18.80
2017-12-06T09:03:59.215Z,16.00
2017-12-06T09:06:27.891Z,16.70
2017-12-06T09:08:57.312Z,18.60
2017-12-06T09:11:26.616Z,21.90
2017-12-06T09:13:54.850Z,15.67
2017-12-06T09:16:23.125Z,19.90
2017-12-06T09:18:51.422Z,16.33
2017-12-06T09:21:19.682Z,18.33
2017-12-06T09:23:47.935Z,19.47
2017-12-06T09:26:16.964Z,19.43
2017-12-06T09:28:45.229Z,20.50
2017-12-06T09:31:14.263Z,16.50
2017-12-06T09:33:42.688Z,18.60
2017-12-06T09:36:11.234Z,19.50
2017-12-06T09:38:39.488Z,21.50
2017-12-06T09:41:07.734Z,18.70
2017-12-06T09:43:36.082Z,15.63
2017-12-06T09:46:05.346Z,20.80
2017-12-06T09:48:34.389Z,19.80
2017-12-06T09:51:02.675Z,21.53
2017-12-06T09:53:30.958Z,18.60
2017-12-06T09:55:59.286Z,17.67
2017-12-06T09:58:28.301Z,22.50
2017-12-06T10:00:56.555Z,17.30
2017-12-06T10:03:25.606Z,20.53
2017-12-06T10:05:53.862Z,20.87
2017-12-06T10:08:22.129Z,20.63
2017-12-06T10:10:51.143Z,18.50
2017-12-06T10:13:19.410Z,14.07
2017-12-06T10:15:47.756Z,17.87
2017-12-06T10:18:16.111Z,19.40
2017-12-06T10:20:44.413Z,17.77
2017-12-06T10:23:12.622Z,17.07
2017-12-06T10:25:41.666Z,18.03
2017-12-06T10:28:10.034Z,17.67
2017-12-06T10:30:38.329Z,19.73
2017-12-06T10:33:07.540Z,15.13
2017-12-06T10:35:35.808Z,17.83
2017-12-06T10:38:04.080Z,16.80
2017-12-06T10:40:32.372Z,17.77
2017-12-06T10:43:00.661Z,16.80
2017-12-06T10:45:28.945Z,16.17
2017-12-06T10:47:57.181Z,19.73
2017-12-06T10:50:25.503Z,29.63
2017-12-06T10:52:53.770Z,19.27
2017-12-06T10:55:22.029Z,22.33
2017-12-06T10:57:50.278Z,19.33
2017-12-06T11:00:18.545Z,16.20
2017-12-06T11:02:46.811Z,20.53
2017-12-06T11:05:15.082Z,20.20
2017-12-06T11:07:43.338Z,21.77
2017-12-06T11:10:11.611Z,19.77
2017-12-06T11:12:40.641Z,16.60
2017-12-06T11:15:08.949Z,21.63
2017-12-06T11:17:37.231Z,19.30
2017-12-06T11:20:05.540Z,20.33
2017-12-06T11:22:34.567Z,16.87
2017-12-06T11:25:02.870Z,18.43
2017-12-06T11:27:31.117Z,22.73
2017-12-06T11:29:59.422Z,19.73
2017-12-06T11:32:27.666Z,20.37
2017-12-06T11:34:56.701Z,14.97
2017-12-06T11:37:24.942Z,16.00
2017-12-06T11:39:53.214Z,16.10
2017-12-06T11:42:22.246Z,18.03
2017-12-06T11:44:50.502Z,16.53
2017-12-06T11:47:18.794Z,15.97
2017-12-06T11:49:47.062Z,19.17
2017-12-06T11:52:15.331Z,18.00
2017-12-06T11:54:44.358Z,17.10
2017-12-06T11:57:12.623Z,16.30
2017-12-06T11:59:40.883Z,14.57
2017-12-06T12:02:09.155Z,20.63
2017-12-06T12:04:37.438Z,17.93
2017-12-06T12:07:05.784Z,17.30
2017-12-06T12:09:34.067Z,15.70
2017-12-06T12:12:02.352Z,16.37
2017-12-06T12:14:30.676Z,15.23
2017-12-06T12:16:59.723Z,20.03
2017-12-06T12:19:27.980Z,22.97
2017-12-06T12:21:56.266Z,16.20
2017-12-06T12:24:24.527Z,16.80
2017-12-06T12:26:52.871Z,18.10
2017-12-06T12:29:21.153Z,19.53
2017-12-06T12:31:49.422Z,19.43
2017-12-06T12:34:17.674Z,18.43
2017-12-06T12:36:45.961Z,22.20
2017-12-06T12:39:14.242Z,22.80
2017-12-06T12:41:42.588Z,24.17
2017-12-06T12:44:11.602Z,20.30
2017-12-06T12:46:39.890Z,20.80
2017-12-06T12:49:08.186Z,18.20
2017-12-06T12:51:36.442Z,19.30
2017-12-06T12:54:04.706Z,17.80
2017-12-06T12:56:33.729Z,17.27
2017-12-06T12:59:02.009Z,18.60
2017-12-06T13:01:30.266Z,16.57
2017-12-06T13:03:59.410Z,21.40
2017-12-06T13:06:27.667Z,19.53
2017-12-06T13:08:55.962Z,18.77
2017-12-06T13:11:24.211Z,22.57
2017-12-06T13:13:52.531Z,18.53
2017-12-06T13:16:20.854Z,19.07
2017-12-06T13:18:49.112Z,22.37
2017-12-06T13:21:17.373Z,18.00
2017-12-06T13:23:45.635Z,19.17
2017-12-06T13:26:13.930Z,16.90
2017-12-06T13:28:42.170Z,23.33
2017-12-06T13:31:11.511Z,18.40
2017-12-06T13:33:39.930Z,16.17
2017-12-06T13:36:08.229Z,19.00
2017-12-06T13:38:36.564Z,16.37
2017-12-06T13:41:04.833Z,18.60
2017-12-06T13:43:33.097Z,17.07
2017-12-06T13:46:01.395Z,14.53
2017-12-06T13:48:29.689Z,18.90
2017-12-06T13:50:57.938Z,19.87
2017-12-06T13:53:26.211Z,16.00
2017-12-06T13:55:54.601Z,19.90
2017-12-06T13:58:22.876Z,16.23
2017-12-06T14:00:51.881Z,20.10
2017-12-06T14:03:20.162Z,16.60
2017-12-06T14:05:48.409Z,19.00
2017-12-06T14:08:16.766Z,20.83
2017-12-06T14:10:45.134Z,18.17
2017-12-06T14:13:13.405Z,16.90
2017-12-06T14:15:41.764Z,17.43
2017-12-06T14:18:10.807Z,17.63
2017-12-06T14:20:39.074Z,18.73
2017-12-06T14:23:07.367Z,17.93
2017-12-06T14:25:35.636Z,20.27
2017-12-06T14:28:03.902Z,21.60
2017-12-06T14:30:32.179Z,18.13
2017-12-06T14:33:00.430Z,21.57
2017-12-06T14:35:29.463Z,17.43
2017-12-06T14:37:58.004Z,18.40
2017-12-06T14:40:27.339Z,16.53
2017-12-06T14:42:55.567Z,19.60
2017-12-06T14:45:23.843Z,20.47
2017-12-06T14:47:52.110Z,16.93
2017-12-06T14:50:20.481Z,21.83
2017-12-06T14:52:48.798Z,18.17
2017-12-06T14:55:17.159Z,17.97
2017-12-06T14:57:45.424Z,28.47
2017-12-06T15:00:13.698Z,22.80
2017-12-06T15:02:42.014Z,17.87
2017-12-06T15:05:10.291Z,24.40
2017-12-06T15:07:38.543Z,27.50
2017-12-06T15:10:06.879Z,27.43
2017-12-06T15:12:37.794Z,29.73
2017-12-06T15:15:03.515Z,30.37
2017-12-06T15:17:31.800Z,30.90
2017-12-06T15:20:00.058Z,32.97
2017-12-06T15:22:28.379Z,33.33
2017-12-06T15:24:56.634Z,31.43
2017-12-06T15:27:24.892Z,32.37
2017-12-06T15:29:53.198Z,32.37
2017-12-06T15:32:21.457Z,26.93
2017-12-06T15:34:49.806Z,33.53
2017-12-06T15:37:18.184Z,32.93
2017-12-06T15:39:46.432Z,31.30
2017-12-06T15:42:14.719Z,27.20
2017-12-06T15:44:43.761Z,30.37
2017-12-06T15:47:13.324Z,32.47
2017-12-06T15:49:41.912Z,30.10
2017-12-06T15:52:10.175Z,27.43
2017-12-06T15:54:38.462Z,32.20
2017-12-06T15:57:06.739Z,29.00
2017-12-06T15:59:35.008Z,29.47
2017-12-06T16:02:03.313Z,27.90
2017-12-06T16:04:31.577Z,32.17
2017-12-06T16:06:59.875Z,26.23
2017-12-06T16:09:28.134Z,26.90
2017-12-06T16:11:56.447Z,30.70
2017-12-06T16:14:24.690Z,28.07
2017-12-06T16:16:52.981Z,30.47
2017-12-06T16:19:21.236Z,33.93
2017-12-06T16:21:50.378Z,33.00
2017-12-06T16:24:18.637Z,30.10
2017-12-06T16:26:46.942Z,26.30
2017-12-06T16:29:15.197Z,28.43
2017-12-06T16:31:43.530Z,33.33
2017-12-06T16:34:11.787Z,29.80
2017-12-06T16:36:51.866Z,25.40
2017-12-06T16:39:20.133Z,34.60
2017-12-06T16:41:48.427Z,30.73
2017-12-06T16:44:16.703Z,37.73
2017-12-06T16:46:44.946Z,32.20
2017-12-06T16:49:13.218Z,25.27
2017-12-06T16:51:41.514Z,29.73
2017-12-06T16:54:09.794Z,31.30
2017-12-06T16:56:38.203Z,24.43
2017-12-06T16:59:06.557Z,32.50
2017-12-06T17:01:34.854Z,32.67
2017-12-06T17:04:03.133Z,27.90
2017-12-06T17:06:31.404Z,32.43
2017-12-06T17:08:59.660Z,30.00
2017-12-06T17:11:27.950Z,31.60
2017-12-06T17:13:56.770Z,30.73
2017-12-06T17:16:25.193Z,30.33
2017-12-06T17:18:53.446Z,32.87
2017-12-06T17:21:21.786Z,28.87
2017-12-06T17:23:50.458Z,31.83
2017-12-06T17:26:19.184Z,24.47
2017-12-06T17:28:59.685Z,24.97
2017-12-06T17:31:41.611Z,23.97
2017-12-06T17:34:10.165Z,29.50
2017-12-06T17:36:38.479Z,25.80
2017-12-06T17:39:07.502Z,25.10
2017-12-06T17:41:35.752Z,33.27
2017-12-06T17:44:04.791Z,25.90
2017-12-06T17:46:33.051Z,27.97
2017-12-06T17:49:02.082Z,28.57
2017-12-06T17:51:30.343Z,30.00
2017-12-06T17:53:58.606Z,29.37
2017-12-06T17:56:28.393Z,31.87
2017-12-06T17:58:57.899Z,28.27
2017-12-06T18:01:26.274Z,33.13
2017-12-06T18:03:54.773Z,29.70
2017-12-06T18:06:23.934Z,28.20
2017-12-06T18:08:52.231Z,28.77
2017-12-06T18:11:20.555Z,29.17
2017-12-06T18:13:51.273Z,29.20
2017-12-06T18:16:20.269Z,24.50
2017-12-06T18:18:48.962Z,35.60
2017-12-06T18:21:23.278Z,28.47
2017-12-06T18:23:51.939Z,28.70
2017-12-06T18:26:20.872Z,28.30
2017-12-06T18:28:49.270Z,30.23
2017-12-06T18:31:17.893Z,28.20
2017-12-06T18:33:47.044Z,28.30
2017-12-06T18:36:15.334Z,23.80
2017-12-06T18:38:45.125Z,28.43
2017-12-06T18:41:13.388Z,28.03
2017-12-06T18:43:41.715Z,27.83
2017-12-06T18:46:10.750Z,34.50
2017-12-06T18:48:39.002Z,25.70
2017-12-06T18:51:08.033Z,24.67
2017-12-06T18:53:36.288Z,33.20
2017-12-06T18:56:05.314Z,25.17
2017-12-06T18:58:33.572Z,33.17
2017-12-06T19:01:01.863Z,26.67
2017-12-06T19:03:30.119Z,30.17
2017-12-06T19:05:59.171Z,28.50
2017-12-06T19:08:27.450Z,31.27
2017-12-06T19:10:55.731Z,33.30
2017-12-06T19:13:24.024Z,26.33
2017-12-06T19:15:52.269Z,27.97
2017-12-06T19:18:20.555Z,28.30
2017-12-06T19:20:48.832Z,26.20
2017-12-06T19:23:17.110Z,29.97
2017-12-06T19:25:45.363Z,30.80
2017-12-06T19:28:13.678Z,26.87
2017-12-06T19:30:41.927Z,33.83
2017-12-06T19:33:10.972Z,26.97
2017-12-06T19:35:39.247Z,26.53
2017-12-06T19:38:07.561Z,25.20
2017-12-06T19:40:36.050Z,28.90
2017-12-06T19:43:04.462Z,25.20
2017-12-06T19:45:33.122Z,26.70
2017-12-06T19:48:02.631Z,26.93
2017-12-06T19:50:32.038Z,30.60
2017-12-06T19:53:01.189Z,27.43
2017-12-06T19:55:29.624Z,30.87
2017-12-06T19:57:57.998Z,30.20
2017-12-06T20:00:26.252Z,27.00
2017-12-06T20:02:54.550Z,27.07
2017-12-06T20:05:22.824Z,28.57
2017-12-06T20:07:51.098Z,27.77
2017-12-06T20:10:19.390Z,27.67
2017-12-06T20:12:47.670Z,28.40
2017-12-06T20:15:17.006Z,25.27
2017-12-06T20:17:45.271Z,30.03
2017-12-06T20:20:13.525Z,27.93
2017-12-06T20:22:41.831Z,26.80
2017-12-06T20:25:10.902Z,31.80
2017-12-06T20:27:39.162Z,30.90
2017-12-06T20:30:07.463Z,27.10
2017-12-06T20:32:35.731Z,27.60
2017-12-06T20:35:04.015Z,30.07
2017-12-06T20:37:32.258Z,25.40
2017-12-06T20:40:01.338Z,25.10
2017-12-06T20:42:30.360Z,28.93
2017-12-06T20:44:59.404Z,26.27
2017-12-06T20:47:27.715Z,32.03
2017-12-06T20:49:55.966Z,32.60
2017-12-06T20:52:24.215Z,29.93
2017-12-06T20:54:52.552Z,26.57
2017-12-06T20:57:20.809Z,26.47
2017-12-06T20:59:49.081Z,24.70
2017-12-06T21:02:17.334Z,28.10
2017-12-06T21:04:45.602Z,27.63
2017-12-06T21:07:14.629Z,26.17
2017-12-06T21:09:42.895Z,28.53
2017-12-06T21:12:11.147Z,24.80
2017-12-06T21:14:40.245Z,33.37
2017-12-06T21:17:09.256Z,24.30
2017-12-06T21:19:38.279Z,24.80
2017-12-06T21:22:06.541Z,25.73
2017-12-06T21:24:35.565Z,27.20
2017-12-06T21:27:03.824Z,28.57
2017-12-06T21:29:32.099Z,26.57
2017-12-06T21:32:00.359Z,26.30
2017-12-06T21:34:29.393Z,25.57
2017-12-06T21:36:57.653Z,25.70
2017-12-06T21:39:25.966Z,27.30
2017-12-06T21:41:54.234Z,28.30
2017-12-06T21:44:22.815Z,22.33
2017-12-06T21:46:51.074Z,27.87
2017-12-06T21:49:20.111Z,28.03
2017-12-06T21:51:48.375Z,23.10
2017-12-06T21:54:16.649Z,25.10
2017-12-06T21:56:45.003Z,27.23
2017-12-06T21:59:14.039Z,30.77
2017-12-06T22:01:42.306Z,28.27
2017-12-06T22:04:10.850Z,28.60
2017-12-06T22:06:39.333Z,26.37
2017-12-06T22:09:07.920Z,31.10
2017-12-06T22:11:36.255Z,26.07
2017-12-06T22:14:04.506Z,25.83
2017-12-06T22:16:33.658Z,26.70
2017-12-06T22:19:01.918Z,24.13
2017-12-06T22:21:30.180Z,29.67
2017-12-06T22:23:58.426Z,25.00
2017-12-06T22:26:26.770Z,28.13
2017-12-06T22:28:55.046Z,26.57
2017-12-06T22:31:23.466Z,27.30
2017-12-06T22:33:51.695Z,22.50
2017-12-06T22:36:20.003Z,25.80
2017-12-06T22:38:48.279Z,23.27
2017-12-06T22:41:16.563Z,24.80
2017-12-06T22:43:44.838Z,28.27
2017-12-06T22:46:13.923Z,23.20
2017-12-06T22:48:42.172Z,24.77
2017-12-06T22:51:10.588Z,22.27
2017-12-06T22:53:39.678Z,22.67
2017-12-06T22:56:07.938Z,25.17
2017-12-06T22:58:36.462Z,24.87
2017-12-06T23:01:04.715Z,25.47
2017-12-06T23:03:32.980Z,25.00
2017-12-06T23:06:01.989Z,22.23
2017-12-06T23:08:30.265Z,24.20
2017-12-06T23:10:59.304Z,25.10
2017-12-06T23:13:27.558Z,24.33
2017-12-06T23:15:55.823Z,25.73
2017-12-06T23:18:24.095Z,29.73
2017-12-06T23:20:53.130Z,22.63
2017-12-06T23:23:21.417Z,25.23
2017-12-06T23:25:49.684Z,23.90
2017-12-06T23:28:17.963Z,31.20
2017-12-06T23:30:46.260Z,22.43
2017-12-06T23:33:14.550Z,23.60
2017-12-06T23:35:43.690Z,27.43
2017-12-06T23:38:12.749Z,27.37
2017-12-06T23:40:41.001Z,25.27
2017-12-06T23:43:09.257Z,28.77
2017-12-06T23:45:37.569Z,27.47
2017-12-06T23:48:05.817Z,25.20
2017-12-06T23:50:34.857Z,27.77
2017-12-06T23:53:03.106Z,26.50
2017-12-06T23:55:31.379Z,26.53
2017-12-06T23:57:59.641Z,25.13
